createdAt,value
2023-02-15T00:00:11.572Z,63.57
2023-02-15T00:02:38.986Z,64.77
2023-02-15T00:05:06.815Z,69.70
2023-02-15T00:07:33.804Z,77.70
2023-02-15T00:10:00.809Z,80.53
2023-02-15T00:12:27.828Z,93.07
2023-02-15T00:14:54.874Z,88.93
2023-02-15T00:17:22.459Z,90.67
2023-02-15T00:19:49.447Z,98.60
2023-02-15T00:22:16.446Z,95.97
2023-02-15T00:24:43.416Z,101.60
2023-02-15T00:27:10.410Z,110.53
2023-02-15T00:29:37.483Z,106.93
2023-02-15T00:32:04.774Z,96.23
2023-02-15T00:34:31.750Z,90.73
2023-02-15T00:36:59.000Z,86.13
2023-02-15T00:39:26.560Z,77.37
2023-02-15T00:41:53.673Z,59.53
2023-02-15T00:44:20.611Z,60.87
2023-02-15T00:46:47.636Z,63.97
2023-02-15T00:49:14.653Z,58.13
2023-02-15T00:51:41.648Z,66.23
2023-02-15T00:54:09.073Z,74.33
2023-02-15T00:56:36.032Z,62.07
2023-02-15T00:59:03.542Z,70.10
2023-02-15T01:01:30.663Z,71.13
2023-02-15T01:03:57.958Z,72.37
2023-02-15T01:06:24.959Z,82.50
2023-02-15T01:08:51.959Z,88.27
2023-02-15T01:11:25.284Z,88.97
2023-02-15T01:13:55.615Z,84.10
2023-02-15T01:16:24.769Z,87.03
2023-02-15T01:18:52.011Z,90.73
2023-02-15T01:21:22.243Z,101.23
2023-02-15T01:23:50.112Z,102.43
2023-02-15T01:26:17.727Z,94.50
2023-02-15T01:28:45.636Z,84.73
2023-02-15T01:31:20.192Z,88.27
2023-02-15T01:33:48.896Z,84.30
2023-02-15T01:36:18.521Z,92.93
2023-02-15T01:38:46.166Z,88.23
2023-02-15T01:41:27.316Z,88.00
2023-02-15T01:44:01.889Z,87.37
2023-02-15T01:46:52.828Z,87.97
2023-02-15T01:49:25.382Z,89.07
2023-02-15T01:51:53.935Z,90.30
2023-02-15T01:54:30.293Z,84.73
2023-02-15T01:57:03.345Z,84.23
2023-02-15T01:59:33.136Z,79.70
2023-02-15T02:02:01.768Z,87.60
2023-02-15T02:04:47.277Z,77.27
2023-02-15T02:07:19.709Z,79.90
2023-02-15T02:09:47.016Z,86.43
2023-02-15T02:12:15.336Z,92.97
2023-02-15T02:14:43.387Z,86.67
2023-02-15T02:17:22.261Z,93.70
2023-02-15T02:20:33.254Z,100.07
2023-02-15T02:23:44.840Z,92.37
2023-02-15T02:26:38.935Z,87.40
2023-02-15T02:29:33.103Z,95.77
2023-02-15T02:32:17.825Z,97.50
2023-02-15T02:35:02.443Z,97.77
2023-02-15T02:37:42.656Z,117.40
2023-02-15T02:40:27.144Z,109.17
2023-02-15T02:43:23.138Z,97.73
2023-02-15T02:46:11.506Z,93.37
2023-02-15T02:48:39.624Z,94.17
2023-02-15T02:51:06.561Z,104.07
2023-02-15T02:53:34.806Z,98.23
2023-02-15T02:56:19.761Z,107.33
2023-02-15T02:59:03.257Z,97.17
2023-02-15T03:01:56.887Z,101.87
2023-02-15T03:04:31.746Z,96.47
2023-02-15T03:07:07.433Z,101.30
2023-02-15T03:09:47.472Z,92.57
2023-02-15T03:12:27.916Z,103.13
2023-02-15T03:15:11.744Z,91.80
2023-02-15T03:17:44.707Z,85.27
2023-02-15T03:20:22.987Z,105.37
2023-02-15T03:22:56.857Z,104.70
2023-02-15T03:25:41.438Z,99.30
2023-02-15T03:28:13.849Z,92.43
2023-02-15T03:30:43.699Z,94.27
2023-02-15T03:33:12.043Z,99.00
2023-02-15T03:36:43.844Z,86.33
2023-02-15T03:39:45.894Z,84.93
2023-02-15T03:42:35.013Z,81.33
2023-02-15T03:45:17.377Z,76.43
2023-02-15T03:47:50.121Z,83.50
2023-02-15T03:50:39.109Z,85.30
2023-02-15T03:53:11.587Z,75.57
2023-02-15T03:55:38.941Z,79.73
2023-02-15T03:58:24.341Z,74.53
2023-02-15T04:01:19.699Z,83.40
2023-02-15T04:03:55.278Z,82.80
2023-02-15T04:06:22.332Z,88.07
2023-02-15T04:09:07.506Z,88.30
2023-02-15T04:11:34.536Z,87.93
2023-02-15T04:14:21.478Z,84.73
2023-02-15T04:16:48.548Z,86.90
2023-02-15T04:19:33.778Z,95.60
2023-02-15T04:22:19.654Z,98.97
2023-02-15T04:25:04.830Z,97.40
2023-02-15T04:27:32.840Z,100.13
2023-02-15T04:29:59.981Z,89.27
2023-02-15T04:32:27.087Z,89.17
2023-02-15T04:34:54.122Z,82.50
2023-02-15T04:37:21.094Z,79.60
2023-02-15T04:39:48.059Z,85.10
2023-02-15T04:42:14.975Z,87.63
2023-02-15T04:44:43.012Z,82.03
2023-02-15T04:47:10.297Z,84.73
2023-02-15T04:49:37.290Z,88.67
2023-02-15T04:52:04.390Z,84.80
2023-02-15T04:54:31.320Z,84.53
2023-02-15T04:56:58.309Z,84.40
2023-02-15T04:59:25.304Z,86.43
2023-02-15T05:01:52.251Z,77.00
2023-02-15T05:04:19.307Z,87.67
2023-02-15T05:06:46.446Z,84.53
2023-02-15T05:09:14.039Z,98.97
2023-02-15T05:11:41.148Z,98.60
2023-02-15T05:14:08.471Z,91.03
2023-02-15T05:16:35.467Z,90.43
2023-02-15T05:19:03.149Z,94.40
2023-02-15T05:21:30.178Z,95.90
2023-02-15T05:23:57.472Z,92.70
2023-02-15T05:26:44.217Z,102.17
2023-02-15T05:29:11.779Z,93.87
2023-02-15T05:31:39.347Z,92.97
2023-02-15T05:34:06.548Z,95.73
2023-02-15T05:36:33.508Z,98.73
2023-02-15T05:39:00.464Z,89.90
2023-02-15T05:41:27.516Z,94.13
2023-02-15T05:43:57.581Z,90.53
2023-02-15T05:46:24.751Z,97.60
2023-02-15T05:48:51.864Z,99.27
2023-02-15T05:51:18.869Z,102.67
2023-02-15T05:53:45.848Z,95.27
2023-02-15T05:56:14.417Z,85.13
2023-02-15T05:58:42.955Z,93.77
2023-02-15T06:01:14.843Z,87.70
2023-02-15T06:03:42.248Z,90.83
2023-02-15T06:06:09.569Z,91.77
2023-02-15T06:08:38.200Z,86.80
2023-02-15T06:11:06.327Z,98.63
2023-02-15T06:13:38.038Z,93.83
2023-02-15T06:16:06.954Z,105.23
2023-02-15T06:18:35.061Z,90.60
2023-02-15T06:21:02.054Z,109.10
2023-02-15T06:23:29.601Z,107.80
2023-02-15T06:25:56.642Z,111.63
2023-02-15T06:28:23.653Z,110.63
2023-02-15T06:30:50.794Z,121.53
2023-02-15T06:33:17.784Z,113.43
2023-02-15T06:35:47.317Z,114.00
2023-02-15T06:38:14.539Z,114.73
2023-02-15T06:40:41.663Z,106.50
2023-02-15T06:43:08.664Z,103.07
2023-02-15T06:45:35.711Z,108.20
2023-02-15T06:48:02.766Z,96.60
2023-02-15T06:50:29.738Z,107.70
2023-02-15T06:53:00.647Z,118.47
2023-02-15T06:55:28.060Z,105.07
2023-02-15T06:57:55.098Z,102.87
2023-02-15T07:00:24.105Z,104.73
2023-02-15T07:02:59.165Z,103.90
2023-02-15T07:05:32.171Z,104.23
2023-02-15T07:08:00.509Z,108.30
2023-02-15T07:10:28.483Z,102.13
2023-02-15T07:12:55.482Z,117.37
2023-02-15T07:15:22.933Z,107.80
2023-02-15T07:17:50.295Z,98.13
2023-02-15T07:20:23.307Z,97.10
2023-02-15T07:22:51.238Z,95.60
2023-02-15T07:25:19.329Z,90.33
2023-02-15T07:27:46.711Z,113.00
2023-02-15T07:30:20.981Z,106.43
2023-02-15T07:33:06.293Z,102.00
2023-02-15T07:35:34.535Z,102.63
2023-02-15T07:38:02.154Z,108.77
2023-02-15T07:40:29.204Z,111.37
2023-02-15T07:43:00.084Z,108.53
2023-02-15T07:45:28.029Z,99.40
2023-02-15T07:47:55.124Z,112.07
2023-02-15T07:50:22.195Z,105.50
2023-02-15T07:52:49.142Z,119.93
2023-02-15T07:55:16.407Z,102.57
2023-02-15T07:57:47.383Z,93.97
2023-02-15T08:00:21.215Z,100.43
2023-02-15T08:03:13.974Z,100.53
2023-02-15T08:05:46.239Z,98.47
2023-02-15T08:08:31.691Z,101.60
2023-02-15T08:11:18.981Z,103.10
2023-02-15T08:13:56.533Z,93.67
2023-02-15T08:16:43.728Z,110.67
2023-02-15T08:19:16.533Z,104.00
2023-02-15T08:21:50.799Z,103.03
2023-02-15T08:24:21.165Z,101.63
2023-02-15T08:26:49.312Z,78.30
2023-02-15T08:29:23.467Z,76.03
2023-02-15T08:31:55.034Z,74.33
2023-02-15T08:34:22.631Z,71.73
2023-02-15T08:36:49.628Z,77.90
2023-02-15T08:39:17.349Z,73.37
2023-02-15T08:41:47.504Z,81.50
2023-02-15T08:44:17.790Z,78.47
2023-02-15T08:46:46.154Z,80.87
2023-02-15T08:49:22.358Z,72.50
2023-02-15T08:51:50.640Z,66.57
2023-02-15T08:54:22.184Z,61.83
2023-02-15T08:56:49.330Z,67.37
2023-02-15T08:59:22.531Z,63.87
2023-02-15T09:01:52.316Z,62.30
2023-02-15T09:04:20.008Z,62.27
2023-02-15T09:06:49.764Z,59.87
2023-02-15T09:09:18.602Z,61.53
2023-02-15T09:11:49.230Z,62.60
2023-02-15T09:14:21.045Z,60.43
2023-02-15T09:16:51.950Z,62.87
2023-02-15T09:19:21.742Z,60.70
2023-02-15T09:21:49.403Z,57.03
2023-02-15T09:24:18.239Z,57.20
2023-02-15T09:26:48.196Z,62.97
2023-02-15T09:29:16.584Z,59.93
2023-02-15T09:31:47.234Z,56.80
2023-02-15T09:34:19.247Z,54.60
2023-02-15T09:36:47.585Z,49.57
2023-02-15T09:39:26.316Z,53.83
2023-02-15T09:42:17.914Z,52.57
2023-02-15T09:45:18.869Z,55.50
2023-02-15T09:48:13.328Z,56.30
2023-02-15T09:51:12.924Z,53.97
2023-02-15T09:54:14.626Z,57.67
2023-02-15T09:56:57.228Z,56.50
2023-02-15T09:59:48.183Z,58.13
2023-02-15T10:02:32.605Z,54.10
2023-02-15T10:05:25.909Z,60.17
2023-02-15T10:08:45.062Z,59.60
2023-02-15T10:11:41.186Z,56.53
2023-02-15T10:14:39.037Z,57.97
2023-02-15T10:17:15.064Z,61.43
2023-02-15T10:20:29.702Z,53.87
2023-02-15T10:23:24.847Z,61.80
2023-02-15T10:25:57.602Z,59.60
2023-02-15T10:28:44.265Z,57.33
2023-02-15T10:31:46.404Z,55.83
2023-02-15T10:34:20.022Z,54.30
2023-02-15T10:37:20.494Z,61.87
2023-02-15T10:40:20.605Z,58.10
2023-02-15T10:43:24.458Z,61.27
2023-02-15T10:46:13.004Z,62.47
2023-02-15T10:49:12.997Z,63.93
2023-02-15T10:52:00.913Z,60.40
2023-02-15T10:54:56.632Z,62.67
2023-02-15T10:57:59.264Z,60.40
2023-02-15T11:01:02.592Z,61.77
2023-02-15T11:04:07.184Z,61.70
2023-02-15T11:06:37.754Z,62.13
2023-02-15T11:09:13.907Z,62.30
2023-02-15T11:11:46.418Z,68.07
2023-02-15T11:14:29.020Z,64.93
2023-02-15T11:17:04.230Z,60.50
2023-02-15T11:19:41.089Z,65.20
2023-02-15T11:22:11.559Z,61.87
2023-02-15T11:24:46.315Z,65.23
2023-02-15T11:27:28.158Z,56.97
2023-02-15T11:30:04.760Z,60.73
2023-02-15T11:32:48.120Z,59.37
2023-02-15T11:35:14.961Z,60.83
2023-02-15T11:38:00.169Z,59.13
2023-02-15T11:40:51.034Z,57.83
2023-02-15T11:43:59.718Z,58.33
2023-02-15T11:46:26.769Z,57.33
2023-02-15T11:48:53.944Z,64.20
2023-02-15T11:51:24.050Z,62.77
2023-02-15T11:53:52.020Z,59.90
2023-02-15T11:56:25.016Z,60.43
2023-02-15T11:59:08.363Z,57.47
2023-02-15T12:01:43.981Z,58.87
2023-02-15T12:04:44.400Z,61.40
2023-02-15T12:07:23.713Z,57.80
2023-02-15T12:10:08.165Z,64.63
2023-02-15T12:12:36.820Z,56.77
2023-02-15T12:15:11.082Z,57.90
2023-02-15T12:17:54.424Z,60.90
2023-02-15T12:20:21.367Z,62.30
2023-02-15T12:22:56.588Z,64.23
2023-02-15T12:25:33.619Z,61.87
2023-02-15T12:28:00.890Z,57.20
2023-02-15T12:30:34.481Z,58.63
2023-02-15T12:33:25.308Z,64.73
2023-02-15T12:36:11.112Z,62.37
2023-02-15T12:38:38.998Z,71.93
2023-02-15T12:41:22.584Z,66.37
2023-02-15T12:44:16.080Z,70.43
2023-02-15T12:46:43.091Z,60.33
2023-02-15T12:49:21.435Z,72.60
2023-02-15T12:51:57.693Z,70.60
2023-02-15T12:54:30.822Z,72.73
2023-02-15T12:56:59.572Z,64.93
2023-02-15T12:59:26.638Z,64.67
2023-02-15T13:01:54.887Z,64.23
2023-02-15T13:04:28.529Z,65.73
2023-02-15T13:07:01.628Z,71.23
2023-02-15T13:09:32.113Z,67.97
2023-02-15T13:12:21.728Z,78.73
2023-02-15T13:14:52.847Z,73.33
2023-02-15T13:17:30.705Z,76.30
2023-02-15T13:20:05.241Z,67.80
2023-02-15T13:22:43.964Z,66.57
2023-02-15T13:25:24.724Z,68.33
2023-02-15T13:28:01.735Z,71.50
2023-02-15T13:30:37.354Z,64.30
2023-02-15T13:33:22.781Z,67.77
2023-02-15T13:36:08.957Z,68.20
2023-02-15T13:38:57.151Z,63.33
2023-02-15T13:41:36.475Z,68.43
2023-02-15T13:44:22.585Z,61.43
2023-02-15T13:47:22.021Z,69.10
2023-02-15T13:50:16.393Z,71.93
2023-02-15T13:53:07.416Z,66.13
2023-02-15T13:56:03.646Z,66.27
2023-02-15T13:58:48.653Z,63.33
2023-02-15T14:01:54.777Z,62.93
2023-02-15T14:05:14.732Z,62.93
2023-02-15T14:07:59.709Z,66.10
2023-02-15T14:11:03.960Z,61.47
2023-02-15T14:13:52.259Z,61.33
2023-02-15T14:16:25.130Z,57.43
2023-02-15T14:19:07.209Z,55.70
2023-02-15T14:21:58.860Z,51.27
2023-02-15T14:24:45.531Z,54.63
2023-02-15T14:27:44.865Z,53.43
2023-02-15T14:30:24.741Z,55.60
2023-02-15T14:33:10.028Z,54.43
2023-02-15T14:35:38.193Z,55.03
2023-02-15T14:38:28.172Z,53.93
2023-02-15T14:41:28.771Z,54.70
2023-02-15T14:44:38.667Z,62.00
2023-02-15T14:47:26.630Z,56.73
2023-02-15T14:49:53.650Z,57.17
2023-02-15T14:52:21.033Z,58.87
2023-02-15T14:54:47.914Z,59.20
2023-02-15T14:57:14.787Z,56.73
2023-02-15T14:59:53.604Z,56.20
2023-02-15T15:02:39.881Z,55.03
2023-02-15T15:05:17.504Z,57.60
2023-02-15T15:07:57.911Z,55.60
2023-02-15T15:10:35.603Z,60.67
2023-02-15T15:13:31.334Z,58.30
2023-02-15T15:16:31.744Z,59.13
2023-02-15T15:19:00.414Z,56.93
2023-02-15T15:21:57.652Z,60.77
2023-02-15T15:24:39.710Z,63.17
2023-02-15T15:27:55.201Z,61.33
2023-02-15T15:30:22.458Z,66.27
2023-02-15T15:32:55.366Z,61.93
2023-02-15T15:35:36.054Z,67.57
2023-02-15T15:38:13.121Z,64.27
2023-02-15T15:41:02.095Z,70.77
2023-02-15T15:43:59.061Z,59.10
2023-02-15T15:46:47.201Z,58.20
2023-02-15T15:49:19.275Z,67.20
2023-02-15T15:51:47.746Z,64.23
2023-02-15T15:54:25.181Z,67.53
2023-02-15T15:57:05.221Z,67.47
2023-02-15T15:59:35.325Z,64.60
2023-02-15T16:02:13.773Z,65.93
2023-02-15T16:04:40.814Z,71.23
2023-02-15T16:07:20.323Z,70.17
2023-02-15T16:10:08.360Z,71.93
2023-02-15T16:12:38.396Z,62.43
2023-02-15T16:15:45.370Z,62.70
2023-02-15T16:18:18.901Z,63.37
2023-02-15T16:21:03.173Z,60.07
2023-02-15T16:23:42.847Z,60.60
2023-02-15T16:26:54.264Z,63.63
2023-02-15T16:29:33.444Z,61.30
2023-02-15T16:32:20.797Z,67.70
2023-02-15T16:35:00.911Z,57.37
2023-02-15T16:37:35.833Z,57.00
2023-02-15T16:40:03.708Z,61.90
2023-02-15T16:42:31.024Z,69.23
2023-02-15T16:45:17.856Z,63.53
2023-02-15T16:47:51.082Z,62.20
2023-02-15T16:50:24.645Z,66.73
2023-02-15T16:52:53.476Z,67.60
2023-02-15T16:55:30.980Z,61.23
2023-02-15T16:58:12.688Z,60.53
2023-02-15T17:00:42.324Z,64.63
2023-02-15T17:03:15.461Z,60.07
2023-02-15T17:05:48.265Z,63.97
2023-02-15T17:08:26.640Z,63.67
2023-02-15T17:10:59.816Z,65.33
2023-02-15T17:13:28.489Z,63.70
2023-02-15T17:16:03.871Z,68.00
2023-02-15T17:18:41.141Z,65.53
2023-02-15T17:21:21.643Z,72.13
2023-02-15T17:23:51.873Z,68.50
2023-02-15T17:26:26.115Z,72.50
2023-02-15T17:28:58.310Z,74.57
2023-02-15T17:31:30.541Z,71.17
2023-02-15T17:33:59.562Z,72.67
2023-02-15T17:36:30.334Z,70.77
2023-02-15T17:39:07.927Z,78.20
2023-02-15T17:41:38.265Z,74.17
2023-02-15T17:44:09.025Z,69.73
2023-02-15T17:46:38.977Z,74.90
2023-02-15T17:49:06.501Z,76.27
2023-02-15T17:51:36.057Z,76.47
2023-02-15T17:54:22.240Z,76.17
2023-02-15T17:56:49.187Z,72.47
2023-02-15T17:59:16.148Z,75.03
2023-02-15T18:02:08.231Z,75.77
2023-02-15T18:04:55.860Z,84.37
2023-02-15T18:07:41.960Z,81.90
2023-02-15T18:10:38.664Z,74.00
2023-02-15T18:13:05.701Z,80.77
2023-02-15T18:15:33.004Z,76.20
2023-02-15T18:18:00.295Z,75.87
2023-02-15T18:20:36.872Z,78.20
2023-02-15T18:23:04.157Z,78.20
2023-02-15T18:25:31.316Z,74.37
2023-02-15T18:27:58.347Z,81.63
2023-02-15T18:30:26.817Z,80.07
2023-02-15T18:32:57.739Z,75.83
2023-02-15T18:35:29.465Z,85.40
2023-02-15T18:37:56.866Z,76.03
2023-02-15T18:40:27.521Z,84.07
2023-02-15T18:42:57.106Z,81.93
2023-02-15T18:45:28.702Z,82.17
2023-02-15T18:47:56.229Z,80.57
2023-02-15T18:50:25.465Z,84.47
2023-02-15T18:53:10.578Z,84.43
2023-02-15T18:55:37.750Z,79.53
2023-02-15T18:58:04.948Z,80.57
2023-02-15T19:00:35.379Z,81.83
2023-02-15T19:03:03.409Z,86.23
2023-02-15T19:05:32.428Z,85.97
2023-02-15T19:08:01.213Z,81.17
2023-02-15T19:10:31.447Z,84.53
2023-02-15T19:12:58.766Z,86.17
2023-02-15T19:15:30.509Z,82.07
2023-02-15T19:17:57.578Z,89.57
2023-02-15T19:20:42.468Z,82.03
2023-02-15T19:23:19.472Z,83.10
2023-02-15T19:25:48.020Z,79.00
2023-02-15T19:28:18.783Z,80.23
2023-02-15T19:30:46.240Z,78.53
2023-02-15T19:33:21.763Z,79.90
2023-02-15T19:35:54.163Z,86.53
2023-02-15T19:38:26.914Z,88.57
2023-02-15T19:40:58.046Z,87.13
2023-02-15T19:43:26.413Z,83.97
2023-02-15T19:45:53.982Z,89.23
2023-02-15T19:48:20.959Z,94.90
2023-02-15T19:54:30.767Z,85.37
2023-02-15T19:56:58.158Z,87.90
2023-02-15T19:59:32.972Z,87.23
2023-02-15T20:02:00.497Z,85.33
2023-02-15T20:04:27.859Z,85.53
2023-02-15T20:06:59.011Z,88.43
2023-02-15T20:09:32.826Z,87.13
2023-02-15T20:12:00.398Z,92.40
2023-02-15T20:14:28.051Z,83.27
2023-02-15T20:16:55.150Z,88.40
2023-02-15T20:19:22.126Z,87.60
2023-02-15T20:25:21.872Z,82.60
2023-02-15T20:27:49.833Z,84.17
2023-02-15T20:30:24.525Z,85.17
2023-02-15T20:32:57.170Z,92.50
2023-02-15T20:35:39.428Z,85.80
2023-02-15T20:38:30.855Z,82.70
2023-02-15T20:41:23.617Z,86.13
2023-02-15T20:43:51.272Z,78.63
2023-02-15T20:46:18.256Z,89.00
2023-02-15T20:48:45.320Z,84.30
2023-02-15T20:51:21.804Z,77.90
2023-02-15T20:53:49.068Z,80.27
2023-02-15T20:56:22.926Z,78.90
2023-02-15T20:58:51.002Z,82.90
2023-02-15T21:01:21.820Z,89.93
2023-02-15T21:03:49.117Z,82.10
2023-02-15T21:06:17.234Z,83.27
2023-02-15T21:08:44.619Z,82.33
2023-02-15T21:11:22.733Z,81.20
2023-02-15T21:13:51.241Z,80.13
2023-02-15T21:16:18.343Z,85.00
2023-02-15T21:18:45.405Z,82.53
2023-02-15T21:21:23.804Z,81.27
2023-02-15T21:23:52.862Z,80.60
2023-02-15T21:26:23.119Z,73.57
2023-02-15T21:28:50.526Z,84.23
2023-02-15T21:31:24.246Z,74.37
2023-02-15T21:33:51.539Z,77.27
2023-02-15T21:36:25.160Z,80.03
2023-02-15T21:38:53.842Z,74.50
2023-02-15T21:41:42.707Z,77.07
2023-02-15T21:44:41.394Z,73.77
2023-02-15T21:47:49.789Z,76.30
2023-02-15T21:50:42.262Z,73.30
2023-02-15T21:53:38.816Z,75.77
2023-02-15T21:56:09.353Z,79.93
2023-02-15T21:58:37.192Z,76.33
2023-02-15T22:01:05.101Z,76.13
2023-02-15T22:03:36.868Z,77.87
2023-02-15T22:06:04.918Z,78.57
2023-02-15T22:08:32.653Z,83.20
2023-02-15T22:10:59.943Z,77.83
2023-02-15T22:13:34.024Z,76.53
2023-02-15T22:16:02.324Z,79.27
2023-02-15T22:18:34.265Z,73.50
2023-02-15T22:21:03.641Z,76.03
2023-02-15T22:23:31.200Z,71.13
2023-02-15T22:26:04.201Z,76.83
2023-02-15T22:28:38.281Z,77.13
2023-02-15T22:31:12.024Z,78.50
2023-02-15T22:33:39.851Z,79.23
2023-02-15T22:36:09.504Z,80.97
2023-02-15T22:38:36.415Z,80.43
2023-02-15T22:41:05.648Z,76.37
2023-02-15T22:43:41.614Z,77.53
2023-02-15T22:46:17.719Z,80.57
2023-02-15T22:48:47.577Z,84.10
2023-02-15T22:51:21.100Z,79.20
2023-02-15T22:53:52.336Z,83.67
2023-02-15T22:56:27.781Z,83.87
2023-02-15T22:59:04.058Z,86.87
2023-02-15T23:01:35.268Z,90.87
2023-02-15T23:04:03.884Z,88.67
2023-02-15T23:06:32.034Z,87.90
2023-02-15T23:09:00.752Z,86.60
2023-02-15T23:11:28.151Z,89.23
2023-02-15T23:13:55.367Z,93.63
2023-02-15T23:16:22.511Z,86.50
2023-02-15T23:18:51.109Z,89.90
2023-02-15T23:21:27.015Z,88.30
2023-02-15T23:24:17.630Z,87.33
2023-02-15T23:26:44.795Z,97.57
2023-02-15T23:29:23.524Z,91.30
2023-02-15T23:31:53.242Z,92.43
2023-02-15T23:34:24.786Z,93.50
2023-02-15T23:36:51.852Z,94.13
2023-02-15T23:39:41.698Z,93.23
2023-02-15T23:42:19.415Z,93.33
2023-02-15T23:44:48.234Z,100.23
2023-02-15T23:47:47.937Z,94.00
2023-02-15T23:50:26.322Z,91.10
2023-02-15T23:52:54.849Z,92.17
2023-02-15T23:55:22.725Z,91.97
2023-02-15T23:57:50.179Z,91.17
